Liberty Corner, New Jersey
Current Conditions -  °F | °C
As of 10:53 AM on Thursday 29 Jan 2015 (Local Time) from KSMQ Reporting Station
Clear Clear  
Wind Chill: 27°   Ceiling: Unl
Heat Index: 27°   Visibility: 10mi
Dew Point:   Wind: 0mph
Humidity: 31%   Direction: NA
Pressure: 30.29"   Gusts: NA
Location:  40.66°N, 74.58°W
Report Text: KSMQ 291553Z AUTO 00000KT 10SM CLR M03/M18 A3029 RMK AO2 SLP260 T10281178 TSNO
Loading
Personal Weather Stations






























Interactive Weather Map New forecast layout! Learn more

10-Day Weather Forecast

Advertisements
Track Severe Weather on mobile